Time;durP1;ratioP1;P1;durP2;ratioP2;P2;SDS_P1;SDS_P2;PMS_P1;PMS_P2;Temp;Humidity;BMP_temperature;BMP_pressure;BME280_temperature;BME280_humidity;BME280_pressure;Samples;Min_cycle;Max_cycle;Signal;HPM_P1;HPM_P2
2021/05/27 00:00:25;;;;;;;2.17;1.50;;;;;;;9.07;76.23;98845.38;5093577;28;41698;-76
2021/05/27 00:02:53;;;;;;;3.13;1.43;;;;;;;9.02;76.39;98835.91;5109771;28;42700;-76
2021/05/27 00:05:20;;;;;;;1.73;1.63;;;;;;;9.02;76.77;98844.81;5109294;28;42878;-78
2021/05/27 00:07:48;;;;;;;2.40;1.57;;;;;;;8.98;76.76;98839.69;5092861;28;40220;-75
2021/05/27 00:10:18;;;;;;;2.60;1.43;;;;;;;8.86;76.66;98826.31;5092123;28;41529;-77
2021/05/27 00:12:46;;;;;;;1.90;1.70;;;;;;;8.95;76.59;98847.78;5092516;28;41099;-74
2021/05/27 00:15:16;;;;;;;3.00;1.70;;;;;;;8.93;76.57;98840.88;5109753;28;42170;-76
2021/05/27 00:17:43;;;;;;;2.33;1.40;;;;;;;8.83;76.88;98831.75;5109629;28;39721;-78
2021/05/27 00:20:12;;;;;;;1.60;1.50;;;;;;;8.81;76.79;98826.56;5108541;28;42562;-76
2021/05/27 00:22:40;;;;;;;1.63;1.53;;;;;;;8.85;77.11;98836.03;5110471;27;42746;-78
2021/05/27 00:25:09;;;;;;;2.83;2.00;;;;;;;8.83;76.89;98845.81;5109249;28;42194;-78
2021/05/27 00:27:36;;;;;;;2.57;2.37;;;;;;;8.75;77.18;98829.56;5090675;28;40406;-76
2021/05/27 00:30:05;;;;;;;2.43;1.80;;;;;;;8.79;77.40;98841.63;5092542;28;40592;-78
2021/05/27 00:32:34;;;;;;;2.80;2.20;;;;;;;8.64;77.51;98816.97;5111082;27;42702;-75
2021/05/27 00:35:01;;;;;;;2.60;2.40;;;;;;;8.77;77.87;98840.03;5108521;28;42023;-78
2021/05/27 00:37:28;;;;;;;2.53;2.00;;;;;;;8.75;77.71;98845.41;5111180;27;40403;-76
2021/05/27 00:39:55;;;;;;;2.70;2.27;;;;;;;8.62;78.02;98825.91;5107625;28;41860;-76
2021/05/27 00:42:22;;;;;;;2.40;2.20;;;;;;;8.68;77.80;98844.03;5109695;28;42513;-77
2021/05/27 00:45:01;;;;;;;3.30;1.93;;;;;;;8.62;78.05;98847.88;5124010;27;42078;-76
2021/05/27 00:47:28;;;;;;;1.83;1.50;;;;;;;8.50;77.68;98831.84;5089207;28;40927;-78
2021/05/27 00:49:57;;;;;;;2.00;1.80;;;;;;;8.51;77.85;98841.47;5089687;28;41710;-77
2021/05/27 00:52:24;;;;;;;2.60;2.40;;;;;;;8.54;77.78;98854.47;5088918;28;42772;-76
2021/05/27 00:54:53;;;;;;;3.80;2.57;;;;;;;8.58;78.49;98861.31;5088531;28;42859;-76
2021/05/27 00:57:31;;;;;;;3.80;2.90;;;;;;;8.48;78.37;98847.75;5105971;28;39051;-76
2021/05/27 01:00:00;;;;;;;2.77;2.57;;;;;;;8.56;78.66;98855.25;5071122;28;42814;-78
2021/05/27 01:02:28;;;;;;;3.80;2.63;;;;;;;8.57;78.64;98859.59;5088876;28;41795;-76
2021/05/27 01:04:56;;;;;;;3.10;2.50;;;;;;;8.47;78.88;98848.69;5071076;28;41213;-77
2021/05/27 01:07:24;;;;;;;2.97;2.67;;;;;;;8.56;79.02;98863.16;5088353;28;39836;-76
2021/05/27 01:09:52;;;;;;;3.17;2.40;;;;;;;8.39;78.98;98842.13;5088010;28;41723;-78
2021/05/27 01:12:20;;;;;;;2.77;2.50;;;;;;;8.55;79.35;98864.97;5071094;28;42018;-78
2021/05/27 01:17:36;;;;;;;3.13;2.73;;;;;;;8.50;78.84;98858.25;5088137;28;40066;-78
2021/05/27 01:20:07;;;;;;;3.00;2.80;;;;;;;8.47;78.97;98853.13;5087920;28;41610;-77
2021/05/27 01:22:36;;;;;;;4.00;2.97;;;;;;;8.49;78.97;98861.81;5087756;28;42656;-76
2021/05/27 01:25:05;;;;;;;3.70;2.83;;;;;;;8.49;79.31;98861.81;5088306;28;42557;-76
2021/05/27 01:27:32;;;;;;;3.27;2.97;;;;;;;8.50;79.59;98863.50;5089572;28;40051;-77
2021/05/27 01:29:59;;;;;;;3.93;3.20;;;;;;;8.50;79.29;98869.66;5087411;28;40641;-74
2021/05/27 01:32:26;;;;;;;5.40;2.90;;;;;;;8.50;79.45;98869.66;5088676;28;42384;-76
2021/05/27 01:34:56;;;;;;;3.60;3.30;;;;;;;8.37;79.39;98842.22;5069503;28;41154;-76
2021/05/27 01:37:23;;;;;;;3.93;2.83;;;;;;;8.48;79.47;98870.66;5089798;28;41006;-74
2021/05/27 01:39:52;;;;;;;4.00;3.60;;;;;;;8.45;79.17;98876.09;5086837;28;41724;-77
2021/05/27 01:42:19;;;;;;;4.37;3.73;;;;;;;8.48;79.39;98881.22;5105212;28;42877;-75
2021/05/27 01:44:53;;;;;;;4.00;3.70;;;;;;;8.47;79.42;98874.22;5106645;28;42648;-78
2021/05/27 01:47:20;;;;;;;3.33;3.00;;;;;;;8.45;79.38;98879.59;5091970;28;39173;-77
2021/05/27 01:49:48;;;;;;;3.93;3.60;;;;;;;8.41;79.35;98870.13;5143004;27;41491;-75
2021/05/27 01:52:16;;;;;;;3.50;3.20;;;;;;;8.42;79.27;98876.25;5107954;28;42540;-76
2021/05/27 01:54:43;;;;;;;3.63;3.30;;;;;;;8.35;79.27;98869.59;5108377;28;42725;-77
2021/05/27 01:57:11;;;;;;;4.93;3.73;;;;;;;8.36;79.78;98871.31;5090577;28;38997;-78
2021/05/27 01:59:38;;;;;;;4.17;3.87;;;;;;;8.40;79.35;98883.44;5091203;28;40604;-77
2021/05/27 02:02:05;;;;;;;4.33;3.70;;;;;;;8.38;79.48;98888.78;5106897;28;43597;-76
2021/05/27 02:04:33;;;;;;;4.03;3.30;;;;;;;8.37;79.46;98889.72;5142267;27;42258;-77
2021/05/27 02:07:09;;;;;;;3.67;3.37;;;;;;;8.36;79.49;98887.16;5106907;28;39827;-76
2021/05/27 02:09:37;;;;;;;4.73;3.40;;;;;;;8.01;79.25;98834.44;5091252;28;41183;-74
2021/05/27 02:12:12;;;;;;;3.53;3.10;;;;;;;8.32;79.06;98890.88;5108340;28;42397;-78
2021/05/27 02:14:39;;;;;;;3.77;2.80;;;;;;;8.25;78.97;98899.09;5107457;28;42924;-78
2021/05/27 02:17:06;;;;;;;3.37;3.07;;;;;;;8.21;78.97;98897.53;5091285;28;39854;-75
2021/05/27 02:19:34;;;;;;;4.07;3.70;;;;;;;8.12;78.94;98891.91;5108918;27;41984;-77
2021/05/27 02:22:01;;;;;;;3.23;2.93;;;;;;;8.11;78.88;98898.94;5107856;28;42213;-75
2021/05/27 02:24:51;;;;;;;3.47;3.07;;;;;;;8.08;78.99;98899.09;5096968;27;42988;-78
2021/05/27 02:27:21;;;;;;;3.57;3.30;;;;;;;8.04;78.85;98902.81;5107294;28;40721;-75
2021/05/27 02:29:48;;;;;;;5.50;4.80;;;;;;;8.01;79.28;98888.97;5107403;28;41716;-75
2021/05/27 02:32:16;;;;;;;5.57;4.60;;;;;;;8.03;79.89;98887.09;5090793;28;45441;-77
2021/05/27 02:34:44;;;;;;;5.30;4.77;;;;;;;8.04;79.67;98892.28;5089718;28;41163;-77
2021/05/27 02:37:12;;;;;;;4.77;4.37;;;;;;;8.05;80.07;98888.72;5106367;28;40505;-75
2021/05/27 02:39:45;;;;;;;5.67;5.07;;;;;;;8.06;79.96;98881.66;5106714;28;41698;-78
2021/05/27 02:42:15;;;;;;;5.63;5.13;;;;;;;7.94;80.63;98854.97;5106871;28;43472;-75
2021/05/27 02:44:44;;;;;;;5.57;4.80;;;;;;;8.09;80.61;98877.06;5107976;28;41509;-75
2021/05/27 02:47:11;;;;;;;5.47;4.97;;;;;;;8.05;80.69;98869.38;5090430;28;39110;-78
2021/05/27 02:49:39;;;;;;;5.07;4.30;;;;;;;8.11;80.44;98877.84;5107496;28;40754;-74
2021/05/27 02:52:07;;;;;;;5.13;4.73;;;;;;;8.05;80.62;98870.25;5145074;27;42522;-77
2021/05/27 02:54:36;;;;;;;5.40;4.73;;;;;;;8.12;80.49;98886.63;5111333;28;42407;-76
2021/05/27 02:57:04;;;;;;;5.10;3.57;;;;;;;8.12;80.33;98892.75;5111699;28;40621;-75
2021/05/27 02:59:34;;;;;;;4.93;3.60;;;;;;;8.10;80.16;98896.38;5112879;28;41478;-78
2021/05/27 03:02:04;;;;;;;6.20;5.20;;;;;;;8.10;80.19;98893.75;5130633;27;41712;-76
2021/05/27 03:04:35;;;;;;;4.63;4.13;;;;;;;8.09;80.14;98892.03;5112291;28;42277;-76
2021/05/27 03:07:02;;;;;;;5.20;4.40;;;;;;;8.07;80.24;98886.84;5096230;28;38702;-76
2021/05/27 03:09:29;;;;;;;4.60;4.20;;;;;;;8.07;79.98;98899.19;5111904;27;42305;-78
2021/05/27 03:11:57;;;;;;;5.10;4.70;;;;;;;7.96;79.83;98881.28;5093674;28;42645;-75
2021/05/27 03:14:27;;;;;;;5.10;3.77;;;;;;;8.04;79.72;98897.53;5112027;27;42039;-77
2021/05/27 03:16:59;;;;;;;4.10;3.70;;;;;;;8.02;79.43;98896.78;5109584;28;40671;-76
2021/05/27 03:19:28;;;;;;;3.63;3.37;;;;;;;8.05;79.70;98901.91;5093875;28;40721;-78
2021/05/27 03:21:57;;;;;;;6.07;5.57;;;;;;;8.05;80.39;98893.97;5111630;27;42857;-76
2021/05/27 03:24:24;;;;;;;7.40;6.47;;;;;;;8.09;80.48;98898.19;5144777;27;42267;-77
2021/05/27 03:26:53;;;;;;;7.40;6.77;;;;;;;8.14;81.61;98904.06;5109921;28;39862;-76
2021/05/27 03:29:23;;;;;;;6.63;6.03;;;;;;;8.22;81.33;98899.25;5094000;28;41530;-76
2021/05/27 03:31:51;;;;;;;6.43;5.83;;;;;;;8.25;81.28;98885.03;5110358;28;42774;-78
2021/05/27 03:34:19;;;;;;;6.17;5.67;;;;;;;8.33;81.70;98887.31;5093592;28;41453;-78
2021/05/27 03:36:47;;;;;;;6.83;6.13;;;;;;;8.42;82.01;98902.63;5145022;27;40456;-78
2021/05/27 03:39:16;;;;;;;8.70;7.20;;;;;;;8.50;82.30;98909.25;5110366;28;41609;-77
2021/05/27 03:41:44;;;;;;;8.87;6.03;;;;;;;8.58;81.72;98903.53;5144462;27;43214;-76
2021/05/27 03:44:12;;;;;;;6.63;6.03;;;;;;;8.68;81.48;98904.75;5110129;28;42888;-78
2021/05/27 03:46:39;;;;;;;6.67;6.07;;;;;;;8.80;81.48;98912.00;5110098;28;40659;-78
2021/05/27 03:49:07;;;;;;;7.57;6.77;;;;;;;8.90;81.10;98920.28;5108942;28;41736;-78
2021/05/27 03:51:34;;;;;;;8.00;7.20;;;;;;;8.95;80.87;98900.59;5109559;28;42774;-77
2021/05/27 03:54:04;;;;;;;7.00;6.30;;;;;;;9.06;80.74;98899.16;5110857;27;42236;-76
2021/05/27 03:56:31;;;;;;;6.40;5.80;;;;;;;9.20;80.25;98901.88;5093707;28;38844;-78
2021/05/27 04:02:16;;;;;;;5.90;5.30;;;;;;;9.37;79.92;98909.72;5035020;28;43003;-77
2021/05/27 04:08:05;;;;;;;5.90;5.30;;;;;;;9.47;79.72;98905.59;5103441;27;41543;-77
2021/05/27 04:10:34;;;;;;;6.53;5.90;;;;;;;9.57;79.78;98906.78;5111147;27;41417;-78
2021/05/27 04:13:01;;;;;;;6.40;5.80;;;;;;;9.66;79.38;98906.22;5110110;27;42765;-78
2021/05/27 04:15:32;;;;;;;6.63;5.93;;;;;;;9.71;79.13;98909.47;5110230;27;42081;-77
2021/05/27 04:18:01;;;;;;;7.03;6.40;;;;;;;9.68;79.24;98893.78;5091490;28;38419;-76
2021/05/27 04:20:33;;;;;;;7.20;6.50;;;;;;;9.79;79.28;98906.38;5110519;27;41677;-79
2021/05/27 04:23:01;;;;;;;6.27;5.67;;;;;;;9.86;78.78;98914.81;5110106;27;43626;-78
2021/05/27 04:25:28;;;;;;;7.13;6.40;;;;;;;9.93;78.62;98918.78;5109595;28;42295;-76
2021/05/27 04:27:58;;;;;;;6.47;5.87;;;;;;;9.97;78.29;98925.63;5108051;28;39723;-78
2021/05/27 04:30:27;;;;;;;7.07;6.37;;;;;;;10.01;78.28;98916.56;5109579;28;40786;-79
2021/05/27 04:32:57;;;;;;;6.67;5.80;;;;;;;10.09;78.01;98930.19;5109741;27;43441;-76
2021/05/27 04:35:30;;;;;;;6.53;5.87;;;;;;;10.15;77.71;98929.81;5092282;28;41119;-78
2021/05/27 04:38:00;;;;;;;6.63;6.03;;;;;;;10.19;77.38;98933.16;5109009;28;39853;-79
2021/05/27 04:40:27;;;;;;;6.17;5.57;;;;;;;10.24;77.38;98936.41;5110925;27;41785;-78
2021/05/27 04:42:56;;;;;;;5.30;4.83;;;;;;;10.29;77.16;98940.47;5107946;28;43604;-77
2021/05/27 04:45:24;;;;;;;5.87;5.20;;;;;;;10.37;77.15;98940.00;5093013;28;42245;-78
2021/05/27 04:47:51;;;;;;;7.63;6.00;;;;;;;10.44;76.70;98934.25;5092307;28;38772;-79
2021/05/27 04:50:18;;;;;;;6.80;5.20;;;;;;;10.49;76.36;98933.13;5092610;28;41686;-79
2021/05/27 04:52:46;;;;;;;5.73;5.23;;;;;;;10.40;76.58;98897.44;5108646;28;42803;-77
2021/05/27 04:55:14;;;;;;;6.60;5.53;;;;;;;10.62;76.50;98927.00;5109886;27;42313;-75
2021/05/27 04:57:42;;;;;;;7.67;5.60;;;;;;;10.64;76.17;98921.56;5143879;27;40663;-76
2021/05/27 05:00:14;;;;;;;14.23;5.07;;;;;;;10.75;75.60;98929.72;5109713;27;42432;-79
2021/05/27 05:02:42;;;;;;;5.83;5.07;;;;;;;10.82;75.57;98924.88;5110059;27;43227;-78
2021/05/27 05:05:11;;;;;;;5.43;4.77;;;;;;;10.88;75.24;98930.63;5109656;27;42111;-76
2021/05/27 05:07:40;;;;;;;6.53;5.37;;;;;;;10.94;75.02;98927.63;5108757;28;40707;-78
2021/05/27 05:10:09;;;;;;;7.17;5.43;;;;;;;10.91;74.96;98917.22;5110307;27;44761;-78
2021/05/27 05:12:45;;;;;;;5.63;4.67;;;;;;;11.02;75.00;98917.38;5108008;27;43207;-76
2021/05/27 05:15:18;;;;;;;7.07;4.90;;;;;;;11.07;74.71;98925.91;5108682;28;42326;-76
2021/05/27 05:17:48;;;;;;;6.13;4.63;;;;;;;11.11;74.40;98923.91;5109951;27;39820;-76
2021/05/27 05:20:17;;;;;;;5.03;4.53;;;;;;;11.03;74.08;98912.94;5107825;28;41010;-79
2021/05/27 05:22:44;;;;;;;5.87;4.30;;;;;;;11.20;73.77;98935.72;5108433;28;41858;-76
2021/05/27 05:25:12;;;;;;;5.23;4.73;;;;;;;11.23;73.68;98920.47;5108746;28;42367;-78
2021/05/27 05:27:39;;;;;;;7.87;4.50;;;;;;;11.43;73.64;98932.44;5109410;27;39652;-78
2021/05/27 05:30:08;;;;;;;5.00;4.50;;;;;;;11.59;73.20;98933.16;5108114;28;41716;-76
2021/05/27 05:32:36;;;;;;;7.13;4.40;;;;;;;11.70;73.01;98924.50;5107657;28;42921;-79
2021/05/27 05:35:04;;;;;;;10.40;4.60;;;;;;;11.94;71.69;98945.94;5091212;28;41455;-78
2021/05/27 05:37:32;;;;;;;5.13;4.63;;;;;;;12.04;71.37;98944.34;5092021;28;39453;-75
2021/05/27 05:39:59;;;;;;;5.87;4.00;;;;;;;12.15;71.03;98952.44;5107197;28;42481;-74
2021/05/27 05:42:28;;;;;;;4.20;3.80;;;;;;;12.33;70.80;98950.38;5109058;27;43347;-77
2021/05/27 05:44:55;;;;;;;4.97;3.90;;;;;;;12.45;70.01;98950.38;5107531;28;41215;-74
2021/05/27 05:47:22;;;;;;;3.93;3.47;;;;;;;12.55;69.92;98943.47;5109675;27;41944;-74
2021/05/27 05:49:50;;;;;;;4.23;3.73;;;;;;;12.73;69.30;98957.28;5108469;28;41125;-75
2021/05/27 05:52:17;;;;;;;4.20;3.77;;;;;;;12.83;69.14;98949.53;5091833;28;42057;-78
2021/05/27 05:54:44;;;;;;;5.50;4.00;;;;;;;12.88;68.58;98937.59;5107074;27;42248;-76
2021/05/27 05:57:12;;;;;;;5.83;3.97;;;;;;;12.93;68.40;98951.44;5091163;28;40043;-76
2021/05/27 05:59:39;;;;;;;4.07;3.73;;;;;;;13.02;68.53;98959.69;5108158;27;42466;-76
2021/05/27 06:02:07;;;;;;;3.90;3.20;;;;;;;13.03;68.27;98951.63;5107730;27;43104;-75
2021/05/27 06:04:36;;;;;;;5.93;3.53;;;;;;;13.03;67.87;98959.59;5107105;28;41984;-75
2021/05/27 06:07:24;;;;;;;4.03;3.23;;;;;;;13.00;67.85;98954.47;5094406;28;39723;-75
2021/05/27 06:09:52;;;;;;;4.60;2.97;;;;;;;13.02;68.36;98949.91;5103181;28;41008;-75
2021/05/27 06:12:19;;;;;;;3.33;2.90;;;;;;;13.07;68.34;98953.09;5103404;28;42649;-79
2021/05/27 06:14:46;;;;;;;4.37;3.20;;;;;;;13.12;67.85;98945.63;5104624;27;42256;-75
2021/05/27 06:17:13;;;;;;;4.03;3.53;;;;;;;13.20;67.62;98953.97;5084827;28;39410;-75
2021/05/27 06:19:40;;;;;;;6.57;5.73;;;;;;;13.30;67.55;98955.00;5105255;27;42443;-77
2021/05/27 06:22:32;;;;;;;4.23;3.70;;;;;;;13.40;67.97;98946.34;5104388;28;42525;-76
2021/05/27 06:25:00;;;;;;;3.83;2.90;;;;;;;13.52;67.12;98956.94;5103892;28;41982;-78
2021/05/27 06:27:27;;;;;;;3.20;2.90;;;;;;;13.58;66.44;98961.00;5107711;28;39830;-77
2021/05/27 06:29:55;;;;;;;5.03;3.13;;;;;;;13.68;66.03;98972.66;5107726;28;41389;-76
2021/05/27 06:32:22;;;;;;;3.43;2.67;;;;;;;13.85;65.83;98971.38;5087229;28;41826;-75
2021/05/27 06:34:50;;;;;;;2.83;2.60;;;;;;;14.00;65.50;98970.25;5103650;28;42429;-74
2021/05/27 06:37:17;;;;;;;5.17;2.97;;;;;;;14.10;64.74;98970.41;5107946;28;41814;-77
2021/05/27 06:39:45;;;;;;;3.03;2.40;;;;;;;14.19;64.65;98969.75;5089452;28;41975;-77
2021/05/27 06:42:13;;;;;;;2.90;2.43;;;;;;;14.28;64.16;98969.03;5090849;28;42194;-76
2021/05/27 06:44:40;;;;;;;4.47;3.30;;;;;;;14.36;63.78;98987.94;5107775;28;41764;-76
2021/05/27 06:47:07;;;;;;;5.83;2.70;;;;;;;14.43;63.83;98978.56;5108537;27;39667;-76
2021/05/27 06:49:34;;;;;;;7.80;3.37;;;;;;;14.51;63.34;98969.97;5106592;28;41358;-81
2021/05/27 06:52:02;;;;;;;6.73;3.30;;;;;;;14.61;62.57;98971.81;5107039;28;42807;-76
2021/05/27 06:54:30;;;;;;;6.37;2.90;;;;;;;14.66;62.89;98968.81;5090826;28;41248;-77
2021/05/27 06:56:59;;;;;;;4.17;2.60;;;;;;;14.80;62.73;98965.06;5106663;28;40684;-77
2021/05/27 06:59:26;;;;;;;4.23;3.03;;;;;;;14.91;62.51;98968.59;5106506;28;44029;-77
2021/05/27 07:01:53;;;;;;;4.53;3.07;;;;;;;15.06;62.55;98978.06;5105631;28;42892;-75
2021/05/27 07:04:20;;;;;;;4.53;3.00;;;;;;;15.14;61.62;98979.25;5089422;28;40879;-76
2021/05/27 07:06:47;;;;;;;4.47;3.10;;;;;;;15.22;61.82;98985.69;5109027;27;39614;-79
2021/05/27 07:09:15;;;;;;;4.73;2.97;;;;;;;15.34;61.47;98992.69;5105885;28;41064;-79
2021/05/27 07:11:42;;;;;;;3.63;2.67;;;;;;;15.36;61.00;98996.09;5106722;28;42525;-75
2021/05/27 07:14:10;;;;;;;4.83;2.70;;;;;;;15.37;60.24;99003.13;5122536;27;42068;-79
2021/05/27 07:16:37;;;;;;;3.33;2.20;;;;;;;15.30;60.69;98999.28;5104860;28;39611;-80
2021/05/27 07:19:04;;;;;;;4.33;2.30;;;;;;;15.29;61.48;98992.25;5106326;27;41604;-78
2021/05/27 07:21:32;;;;;;;4.10;2.10;;;;;;;15.23;61.79;98983.84;5106759;28;43405;-80
2021/05/27 07:23:59;;;;;;;3.00;2.60;;;;;;;15.23;61.52;99003.38;5106268;27;42456;-77
2021/05/27 07:26:27;;;;;;;3.33;2.37;;;;;;;15.02;61.72;98986.41;5106471;28;41065;-75
2021/05/27 07:28:54;;;;;;;3.83;2.57;;;;;;;15.06;61.29;99019.88;5106675;28;41131;-76
2021/05/27 07:31:22;;;;;;;3.87;2.67;;;;;;;14.97;61.04;99009.91;5106921;28;42766;-79
2021/05/27 07:33:50;;;;;;;2.80;2.60;;;;;;;15.00;60.73;99009.69;5107554;27;42233;-79
2021/05/27 07:36:17;;;;;;;3.57;2.73;;;;;;;15.16;61.09;99015.53;5106467;27;39097;-78
2021/05/27 07:38:44;;;;;;;6.00;2.77;;;;;;;15.15;60.39;99013.81;5109769;27;41883;-81
2021/05/27 07:41:11;;;;;;;3.13;2.43;;;;;;;15.07;60.75;99005.59;5110545;27;42576;-79
2021/05/27 07:43:38;;;;;;;3.93;3.43;;;;;;;15.04;60.65;99008.47;5108911;28;41280;-77
2021/05/27 07:46:05;;;;;;;4.97;3.23;;;;;;;15.01;60.28;99016.72;5107797;28;40313;-81
2021/05/27 07:48:33;;;;;;;4.17;2.80;;;;;;;14.97;60.76;99009.91;5109880;27;42287;-79
2021/05/27 07:51:00;;;;;;;4.17;2.63;;;;;;;14.89;60.95;99004.34;5110698;27;42406;-81
2021/05/27 07:53:30;;;;;;;3.73;2.50;;;;;;;14.84;61.60;99004.69;5129873;27;42294;-79
2021/05/27 07:55:57;;;;;;;23.50;17.70;;;;;;;14.72;61.68;99001.16;5088732;28;39957;-80
2021/05/27 07:58:24;;;;;;;10.57;8.33;;;;;;;14.70;61.61;99012.94;5095409;28;41476;-75
2021/05/27 08:00:51;;;;;;;6.50;3.50;;;;;;;14.58;61.63;99014.72;5111270;27;42832;-79
2021/05/27 08:03:19;;;;;;;6.33;2.93;;;;;;;14.50;62.03;99022.44;5110723;27;42188;-80
2021/05/27 08:05:47;;;;;;;5.53;2.87;;;;;;;14.41;61.91;99017.78;5110964;27;40999;-76
2021/05/27 08:08:14;;;;;;;4.37;2.80;;;;;;;14.49;61.86;99010.06;5108850;28;41775;-77
2021/05/27 08:10:41;;;;;;;4.70;2.77;;;;;;;14.65;62.05;99013.25;5109606;28;42714;-75
2021/05/27 08:13:08;;;;;;;4.70;3.20;;;;;;;14.74;61.16;99025.88;5109451;27;42144;-78
2021/05/27 08:15:35;;;;;;;3.50;2.73;;;;;;;14.94;60.73;99026.19;5109394;27;40812;-73
2021/05/27 08:18:02;;;;;;;5.33;3.10;;;;;;;15.07;60.60;99022.44;5117394;27;41025;-79
2021/05/27 08:20:30;;;;;;;4.87;2.77;;;;;;;15.26;60.11;99037.84;5110417;27;42722;-82
2021/05/27 08:22:58;;;;;;;2.60;2.40;;;;;;;15.50;59.32;99037.72;5087583;28;42019;-76
2021/05/27 08:25:25;;;;;;;4.57;2.67;;;;;;;15.66;58.91;99034.69;5111556;27;39837;-78
2021/05/27 08:27:53;;;;;;;3.33;2.67;;;;;;;15.68;58.28;99046.97;5131086;27;41778;-82
2021/05/27 08:30:21;;;;;;;6.13;2.97;;;;;;;15.59;58.47;99041.50;5127136;27;42622;-76
2021/05/27 08:32:49;;;;;;;3.70;2.90;;;;;;;15.43;57.90;99044.53;5109940;28;42125;-78
2021/05/27 08:35:17;;;;;;;2.80;2.60;;;;;;;15.39;58.41;99038.56;5108315;28;40059;-79
2021/05/27 08:37:44;;;;;;;2.80;2.60;;;;;;;15.36;57.96;99046.81;5110115;27;41772;-82
2021/05/27 08:40:13;;;;;;;6.07;2.70;;;;;;;15.14;57.58;99030.78;5110070;27;43014;-80
2021/05/27 08:42:43;;;;;;;4.20;2.47;;;;;;;15.12;58.10;99034.53;5110578;27;42022;-77
2021/05/27 08:45:15;;;;;;;4.83;3.00;;;;;;;15.05;58.65;99034.19;5111617;27;20230;-83
2021/05/27 08:47:42;;;;;;;3.83;2.43;;;;;;;15.10;59.30;99037.34;5110338;27;42154;-79
2021/05/27 08:50:10;;;;;;;3.63;2.73;;;;;;;15.23;59.05;99038.06;5110255;27;43429;-80
2021/05/27 08:52:38;;;;;;;5.63;3.03;;;;;;;15.36;58.17;99041.47;5111141;27;42643;-79
2021/05/27 08:55:05;;;;;;;2.77;2.40;;;;;;;15.57;57.61;99051.47;5108570;28;40101;-72
2021/05/27 08:57:33;;;;;;;4.20;2.60;;;;;;;15.65;57.76;99049.03;5109907;28;40614;-79
2021/05/27 09:00:01;;;;;;;3.50;2.20;;;;;;;15.72;58.39;99044.88;5108848;27;43726;-87
2021/05/27 09:02:28;;;;;;;3.47;2.07;;;;;;;15.82;58.19;99045.84;5110509;27;42433;-74
2021/05/27 09:04:55;;;;;;;2.43;2.07;;;;;;;16.00;57.60;99055.03;5108456;28;40166;-78
2021/05/27 09:07:42;;;;;;;3.30;2.30;;;;;;;16.40;56.66;99054.41;5109342;28;41756;-80
2021/05/27 09:10:10;;;;;;;3.57;2.20;;;;;;;16.51;54.84;99068.59;5109360;27;43489;-86
2021/05/27 09:12:38;;;;;;;2.33;2.10;;;;;;;16.48;55.77;99068.00;5110294;27;41971;-79
2021/05/27 09:15:20;;;;;;;2.53;2.00;;;;;;;16.48;54.96;99070.66;5091305;28;39176;-75
2021/05/27 09:17:49;;;;;;;2.83;2.50;;;;;;;16.70;55.38;99072.41;5109875;27;41819;-75
2021/05/27 09:20:19;;;;;;;3.63;2.13;;;;;;;16.98;54.49;99076.28;5110412;27;44169;-76
2021/05/27 09:22:48;;;;;;;2.30;2.10;;;;;;;17.18;54.34;99086.16;5109292;27;41944;-77
2021/05/27 09:25:27;;;;;;;2.03;1.90;;;;;;;17.37;53.20;99098.78;5108815;28;39128;-74
2021/05/27 09:27:55;;;;;;;2.43;2.23;;;;;;;17.34;53.07;99091.00;5108079;27;41325;-74
2021/05/27 09:30:23;;;;;;;3.47;2.00;;;;;;;17.49;53.56;99089.69;5110157;27;42669;-74
2021/05/27 09:32:52;;;;;;;3.77;2.33;;;;;;;17.77;52.66;99098.84;5107450;28;41116;-71
2021/05/27 09:35:20;;;;;;;3.40;2.53;;;;;;;18.01;52.54;99096.69;5108978;28;40057;-78
2021/05/27 09:37:51;;;;;;;3.60;2.30;;;;;;;18.11;51.72;99107.41;5108900;27;41564;-74
2021/05/27 09:40:39;;;;;;;3.87;2.27;;;;;;;18.21;51.21;99095.72;5109771;27;42477;-77
2021/05/27 09:43:08;;;;;;;4.60;2.60;;;;;;;18.22;50.45;99100.09;5106995;28;41493;-77
2021/05/27 09:45:37;;;;;;;2.80;2.60;;;;;;;18.04;50.46;99106.28;5107582;28;39769;-73
2021/05/27 09:48:18;;;;;;;3.47;3.10;;;;;;;17.73;50.57;99102.78;5107926;28;41632;-77
2021/05/27 09:50:48;;;;;;;3.93;2.67;;;;;;;17.49;50.85;99100.38;5107612;28;42887;-75
2021/05/27 09:53:18;;;;;;;3.30;2.77;;;;;;;17.39;51.35;99105.69;5090523;28;41163;-75
2021/05/27 09:55:46;;;;;;;3.07;2.60;;;;;;;17.40;50.94;99112.75;5109230;27;40666;-76
2021/05/27 09:58:16;;;;;;;3.17;2.87;;;;;;;17.44;52.33;99098.09;5108959;27;41709;-77
2021/05/27 10:00:45;;;;;;;3.17;2.80;;;;;;;17.59;51.23;99112.84;5110345;27;42676;-73
2021/05/27 10:03:28;;;;;;;3.13;2.80;;;;;;;17.76;50.98;99091.81;5111621;28;42922;-77
2021/05/27 10:05:57;;;;;;;4.83;2.60;;;;;;;18.23;49.75;99107.16;5112802;28;39864;-72
2021/05/27 10:08:24;;;;;;;2.83;2.63;;;;;;;18.45;48.56;99105.22;5112247;27;42588;-76
2021/05/27 10:10:52;;;;;;;3.07;2.83;;;;;;;18.90;47.45;99122.53;5095201;28;41858;-74
2021/05/27 10:13:28;;;;;;;2.87;2.43;;;;;;;19.70;47.15;99124.78;5111968;27;42212;-80
2021/05/27 10:15:55;;;;;;;3.93;3.07;;;;;;;20.47;46.80;99122.72;5111152;28;40422;-76
2021/05/27 10:18:23;;;;;;;3.77;2.30;;;;;;;20.78;45.27;99121.34;5108662;27;42269;-76
2021/05/27 10:20:51;;;;;;;3.83;2.40;;;;;;;21.07;43.55;99140.78;5110429;28;42906;-74
2021/05/27 10:23:19;;;;;;;3.27;2.17;;;;;;;21.48;43.06;99149.22;5111508;27;42600;-75
2021/05/27 10:25:48;;;;;;;6.97;2.70;;;;;;;21.60;41.78;99158.75;5112529;27;40800;-76
2021/05/27 10:28:17;;;;;;;3.40;2.40;;;;;;;21.54;41.80;99151.28;5111298;27;41267;-78
2021/05/27 10:30:47;;;;;;;2.23;2.03;;;;;;;21.39;42.19;99133.97;5111131;28;42038;-73
2021/05/27 10:33:19;;;;;;;2.40;2.00;;;;;;;21.25;43.35;99137.28;5094136;28;41232;-77
2021/05/27 10:35:57;;;;;;;2.10;1.90;;;;;;;21.38;42.89;99137.72;5111077;28;38899;-77
2021/05/27 10:38:48;;;;;;;3.47;2.20;;;;;;;21.43;41.94;99136.22;5110376;28;41290;-77
2021/05/27 10:41:18;;;;;;;2.83;2.53;;;;;;;21.24;42.77;99124.81;5112142;27;42495;-78
2021/05/27 10:44:08;;;;;;;2.53;2.27;;;;;;;21.12;43.36;99125.03;5094155;28;41168;-78
2021/05/27 10:47:19;;;;;;;2.27;2.07;;;;;;;20.94;42.74;99134.09;5083893;28;39476;-78
2021/05/27 10:49:55;;;;;;;2.63;2.00;;;;;;;20.76;43.54;99118.81;5112797;27;42241;-78
2021/05/27 10:52:36;;;;;;;3.00;2.03;;;;;;;20.84;43.29;99127.97;5112402;27;42804;-76
2021/05/27 10:55:40;;;;;;;3.00;1.83;;;;;;;20.90;43.14;99127.31;5110334;28;42334;-77
2021/05/27 10:58:07;;;;;;;2.13;2.00;;;;;;;21.03;43.08;99125.94;5110121;28;39854;-78
2021/05/27 11:00:52;;;;;;;2.63;2.37;;;;;;;21.33;41.30;99134.63;5094207;28;40802;-77
2021/05/27 11:03:42;;;;;;;2.97;2.00;;;;;;;21.53;41.72;99141.50;5123891;27;43498;-77
2021/05/27 11:06:35;;;;;;;2.40;2.07;;;;;;;21.51;41.30;99138.16;5090180;28;41454;-78
2021/05/27 11:09:31;;;;;;;2.03;1.93;;;;;;;21.38;41.35;99137.72;5090168;28;39619;-78
2021/05/27 11:12:10;;;;;;;2.53;2.10;;;;;;;20.91;41.45;99124.50;5097433;28;41762;-78
2021/05/27 11:14:40;;;;;;;3.10;2.20;;;;;;;20.57;41.94;99135.09;5093393;28;41708;-77
2021/05/27 11:17:28;;;;;;;2.37;2.20;;;;;;;20.31;43.35;99126.03;5111186;28;41206;-78
2021/05/27 11:19:58;;;;;;;2.20;1.93;;;;;;;20.18;43.96;99121.00;5088456;28;39178;-78
2021/05/27 11:22:55;;;;;;;4.03;2.10;;;;;;;19.96;44.25;99110.66;5110792;28;40657;-78
2021/05/27 11:25:36;;;;;;;3.40;2.23;;;;;;;19.86;43.82;99126.00;5110606;28;42513;-77
2021/05/27 11:28:33;;;;;;;3.60;2.10;;;;;;;20.03;44.50;99117.13;5093723;28;41209;-77
2021/05/27 11:31:01;;;;;;;3.07;2.23;;;;;;;20.39;43.18;99108.19;5109420;28;39060;-77
2021/05/27 11:33:32;;;;;;;2.73;2.47;;;;;;;21.25;42.32;99111.19;5111560;27;41938;-76
2021/05/27 11:36:02;;;;;;;2.93;2.17;;;;;;;22.18;41.91;99126.53;5109267;28;43440;-78
2021/05/27 11:38:33;;;;;;;3.97;1.97;;;;;;;22.51;40.71;99127.47;5120672;27;42898;-77
2021/05/27 11:41:02;;;;;;;2.00;1.80;;;;;;;22.64;39.02;99142.34;5118677;27;40490;-78
2021/05/27 11:43:31;;;;;;;2.23;2.03;;;;;;;22.85;38.42;99145.50;5119113;27;42046;-78
2021/05/27 11:46:04;;;;;;;2.37;1.97;;;;;;;22.96;37.07;99136.22;5119549;28;42578;-77
2021/05/27 11:48:34;;;;;;;4.43;2.10;;;;;;;23.21;38.14;99146.00;5102888;28;41284;-78
2021/05/27 11:51:05;;;;;;;2.57;1.80;;;;;;;23.55;36.83;99154.78;5098395;28;38822;-79
2021/05/27 11:53:57;;;;;;;2.13;1.60;;;;;;;24.30;37.63;99138.19;5110848;28;42074;-79
2021/05/27 11:56:30;;;;;;;1.47;1.37;;;;;;;24.51;36.03;99146.53;5107745;28;41537;-79
2021/05/27 11:58:58;;;;;;;2.47;1.80;;;;;;;24.28;36.30;99140.22;5109741;28;42874;-79